sensor_id;sensor_type;location;lat;lon;timestamp;pressure;altitude;pressure_sealevel;temperature;humidity
13058;BME280;6595;49.578;11.012;2023-11-19T00:00:23;988.081;;;5.57;95.0
13058;BME280;6595;49.578;11.012;2023-11-19T00:02:23;987.991;;;5.54;95.1
13058;BME280;6595;49.578;11.012;2023-11-19T00:04:24;987.724;;;5.57;95.2
13058;BME280;6595;49.578;11.012;2023-11-19T00:06:24;987.733;;;5.57;94.9
13058;BME280;6595;49.578;11.012;2023-11-19T00:08:23;987.799;;;5.55;95.0
13058;BME280;6595;49.578;11.012;2023-11-19T00:10:23;987.827;;;5.54;94.9
13058;BME280;6595;49.578;11.012;2023-11-19T00:12:23;987.885;;;5.57;95.0
13058;BME280;6595;49.578;11.012;2023-11-19T00:14:23;987.851;;;5.57;94.9
13058;BME280;6595;49.578;11.012;2023-11-19T00:16:24;987.677;;;5.58;94.9
13058;BME280;6595;49.578;11.012;2023-11-19T00:18:24;987.617;;;5.58;95.0
13058;BME280;6595;49.578;11.012;2023-11-19T00:20:23;987.701;;;5.61;95.0
13058;BME280;6595;49.578;11.012;2023-11-19T00:22:23;987.642;;;5.57;95.0
13058;BME280;6595;49.578;11.012;2023-11-19T00:24:24;987.668;;;5.57;94.9
13058;BME280;6595;49.578;11.012;2023-11-19T00:26:24;987.622;;;5.54;94.9
13058;BME280;6595;49.578;11.012;2023-11-19T00:28:23;987.662;;;5.60;95.0
13058;BME280;6595;49.578;11.012;2023-11-19T00:30:23;987.707;;;5.60;95.0
13058;BME280;6595;49.578;11.012;2023-11-19T00:32:23;987.607;;;5.61;95.1
13058;BME280;6595;49.578;11.012;2023-11-19T00:34:23;987.583;;;5.62;95.1
13058;BME280;6595;49.578;11.012;2023-11-19T00:36:24;987.417;;;5.62;95.1
13058;BME280;6595;49.578;11.012;2023-11-19T00:38:24;987.383;;;5.61;95.1
13058;BME280;6595;49.578;11.012;2023-11-19T00:40:24;987.427;;;5.64;95.1
13058;BME280;6595;49.578;11.012;2023-11-19T00:42:24;987.354;;;5.62;95.2
13058;BME280;6595;49.578;11.012;2023-11-19T00:44:24;987.183;;;5.60;95.1
13058;BME280;6595;49.578;11.012;2023-11-19T00:46:24;987.229;;;5.58;95.1
13058;BME280;6595;49.578;11.012;2023-11-19T00:48:23;987.175;;;5.60;95.3
13058;BME280;6595;49.578;11.012;2023-11-19T00:50:23;987.053;;;5.62;95.4
13058;BME280;6595;49.578;11.012;2023-11-19T00:52:23;986.985;;;5.64;95.3
13058;BME280;6595;49.578;11.012;2023-11-19T00:54:24;987.213;;;5.65;95.4
13058;BME280;6595;49.578;11.012;2023-11-19T00:56:24;987.242;;;5.64;95.4
13058;BME280;6595;49.578;11.012;2023-11-19T00:58:24;987.177;;;5.65;95.4
13058;BME280;6595;49.578;11.012;2023-11-19T01:00:23;987.237;;;5.64;95.5
13058;BME280;6595;49.578;11.012;2023-11-19T01:02:23;987.175;;;5.67;95.5
13058;BME280;6595;49.578;11.012;2023-11-19T01:04:23;987.387;;;5.67;95.6
13058;BME280;6595;49.578;11.012;2023-11-19T01:06:27;987.308;;;5.65;95.5
13058;BME280;6595;49.578;11.012;2023-11-19T01:08:23;987.256;;;5.68;95.6
13058;BME280;6595;49.578;11.012;2023-11-19T01:10:23;987.202;;;5.70;95.5
13058;BME280;6595;49.578;11.012;2023-11-19T01:12:24;987.249;;;5.68;95.6
13058;BME280;6595;49.578;11.012;2023-11-19T01:14:24;987.259;;;5.71;95.4
13058;BME280;6595;49.578;11.012;2023-11-19T01:16:25;987.131;;;5.72;95.5
13058;BME280;6595;49.578;11.012;2023-11-19T01:18:23;987.203;;;5.72;95.5
13058;BME280;6595;49.578;11.012;2023-11-19T01:20:23;987.179;;;5.72;95.5
13058;BME280;6595;49.578;11.012;2023-11-19T01:22:23;987.173;;;5.75;95.6
13058;BME280;6595;49.578;11.012;2023-11-19T01:24:23;987.182;;;5.74;95.5
13058;BME280;6595;49.578;11.012;2023-11-19T01:26:23;987.148;;;5.75;95.5
13058;BME280;6595;49.578;11.012;2023-11-19T01:28:24;987.144;;;5.79;95.5
13058;BME280;6595;49.578;11.012;2023-11-19T01:30:23;987.158;;;5.77;95.4
13058;BME280;6595;49.578;11.012;2023-11-19T01:32:24;987.094;;;5.78;95.5
13058;BME280;6595;49.578;11.012;2023-11-19T01:34:23;987.065;;;5.78;95.5
13058;BME280;6595;49.578;11.012;2023-11-19T01:36:23;987.022;;;5.79;95.5
13058;BME280;6595;49.578;11.012;2023-11-19T01:38:23;986.985;;;5.79;95.5
13058;BME280;6595;49.578;11.012;2023-11-19T01:40:23;986.799;;;5.79;95.5
13058;BME280;6595;49.578;11.012;2023-11-19T01:42:24;986.791;;;5.78;95.6
13058;BME280;6595;49.578;11.012;2023-11-19T01:44:24;986.809;;;5.79;95.5
13058;BME280;6595;49.578;11.012;2023-11-19T01:46:24;986.788;;;5.77;95.5
13058;BME280;6595;49.578;11.012;2023-11-19T01:48:23;986.639;;;5.79;95.7
13058;BME280;6595;49.578;11.012;2023-11-19T01:50:24;986.549;;;5.82;95.8
13058;BME280;6595;49.578;11.012;2023-11-19T01:52:23;986.452;;;5.84;95.7
13058;BME280;6595;49.578;11.012;2023-11-19T01:54:23;986.484;;;5.81;95.7
13058;BME280;6595;49.578;11.012;2023-11-19T01:56:24;986.443;;;5.82;95.8
13058;BME280;6595;49.578;11.012;2023-11-19T01:58:24;986.376;;;5.82;95.8
13058;BME280;6595;49.578;11.012;2023-11-19T02:00:24;986.492;;;5.85;95.8
13058;BME280;6595;49.578;11.012;2023-11-19T02:02:23;986.498;;;5.84;95.7
13058;BME280;6595;49.578;11.012;2023-11-19T02:04:24;986.499;;;5.84;95.8
13058;BME280;6595;49.578;11.012;2023-11-19T02:06:24;986.411;;;5.87;95.9
13058;BME280;6595;49.578;11.012;2023-11-19T02:08:23;986.387;;;5.85;95.8
13058;BME280;6595;49.578;11.012;2023-11-19T02:10:23;986.337;;;5.87;95.8
13058;BME280;6595;49.578;11.012;2023-11-19T02:12:23;986.358;;;5.88;95.8
13058;BME280;6595;49.578;11.012;2023-11-19T02:14:25;986.335;;;5.88;95.9
13058;BME280;6595;49.578;11.012;2023-11-19T02:16:23;986.335;;;5.91;95.9
13058;BME280;6595;49.578;11.012;2023-11-19T02:18:25;986.425;;;5.90;95.9
13058;BME280;6595;49.578;11.012;2023-11-19T02:20:24;986.466;;;5.91;95.8
13058;BME280;6595;49.578;11.012;2023-11-19T02:22:24;986.434;;;5.90;95.8
13058;BME280;6595;49.578;11.012;2023-11-19T02:24:26;986.386;;;5.94;95.9
13058;BME280;6595;49.578;11.012;2023-11-19T02:26:28;986.369;;;5.95;95.9
13058;BME280;6595;49.578;11.012;2023-11-19T02:28:23;986.477;;;5.97;95.9
13058;BME280;6595;49.578;11.012;2023-11-19T02:30:24;986.417;;;5.97;95.9
13058;BME280;6595;49.578;11.012;2023-11-19T02:32:27;986.452;;;5.95;95.9
13058;BME280;6595;49.578;11.012;2023-11-19T02:34:23;986.378;;;5.98;96.0
13058;BME280;6595;49.578;11.012;2023-11-19T02:36:23;986.429;;;5.97;96.0
13058;BME280;6595;49.578;11.012;2023-11-19T02:38:24;986.464;;;6.00;96.0
13058;BME280;6595;49.578;11.012;2023-11-19T02:40:24;986.403;;;5.98;96.0
13058;BME280;6595;49.578;11.012;2023-11-19T02:42:24;986.471;;;6.01;96.1
13058;BME280;6595;49.578;11.012;2023-11-19T02:44:24;986.461;;;6.01;96.2
13058;BME280;6595;49.578;11.012;2023-11-19T02:46:23;986.341;;;5.98;96.2
13058;BME280;6595;49.578;11.012;2023-11-19T02:48:23;986.344;;;5.98;96.2
13058;BME280;6595;49.578;11.012;2023-11-19T02:50:24;986.353;;;6.02;96.3
13058;BME280;6595;49.578;11.012;2023-11-19T02:52:24;986.344;;;6.01;96.3
13058;BME280;6595;49.578;11.012;2023-11-19T02:54:23;986.295;;;6.04;96.2
13058;BME280;6595;49.578;11.012;2023-11-19T02:56:24;986.266;;;6.02;96.2
13058;BME280;6595;49.578;11.012;2023-11-19T02:58:24;986.216;;;6.01;96.2
13058;BME280;6595;49.578;11.012;2023-11-19T03:00:24;986.168;;;6.02;96.3
13058;BME280;6595;49.578;11.012;2023-11-19T03:02:23;986.107;;;6.01;96.4
13058;BME280;6595;49.578;11.012;2023-11-19T03:04:24;986.005;;;6.05;96.3
13058;BME280;6595;49.578;11.012;2023-11-19T03:06:24;985.990;;;6.05;96.4
13058;BME280;6595;49.578;11.012;2023-11-19T03:08:24;986.013;;;6.04;96.3
13058;BME280;6595;49.578;11.012;2023-11-19T03:10:24;985.988;;;6.04;96.4
13058;BME280;6595;49.578;11.012;2023-11-19T03:12:23;986.083;;;6.05;96.5
13058;BME280;6595;49.578;11.012;2023-11-19T03:14:23;985.986;;;6.02;96.3
13058;BME280;6595;49.578;11.012;2023-11-19T03:16:23;985.986;;;6.06;96.3
13058;BME280;6595;49.578;11.012;2023-11-19T03:18:24;985.892;;;6.08;96.4
13058;BME280;6595;49.578;11.012;2023-11-19T03:20:24;985.802;;;6.06;96.4
13058;BME280;6595;49.578;11.012;2023-11-19T03:22:23;985.712;;;6.09;96.4
13058;BME280;6595;49.578;11.012;2023-11-19T03:24:23;985.694;;;6.09;96.4
13058;BME280;6595;49.578;11.012;2023-11-19T03:26:24;985.534;;;6.06;96.3
13058;BME280;6595;49.578;11.012;2023-11-19T03:28:24;985.597;;;6.06;96.3
13058;BME280;6595;49.578;11.012;2023-11-19T03:30:24;985.592;;;6.08;96.3
13058;BME280;6595;49.578;11.012;2023-11-19T03:32:24;985.554;;;6.09;96.3
13058;BME280;6595;49.578;11.012;2023-11-19T03:34:23;985.292;;;6.05;96.3
13058;BME280;6595;49.578;11.012;2023-11-19T03:36:23;985.210;;;6.06;96.3
13058;BME280;6595;49.578;11.012;2023-11-19T03:38:24;984.714;;;6.08;96.2
13058;BME280;6595;49.578;11.012;2023-11-19T03:40:24;984.479;;;6.06;96.4
13058;BME280;6595;49.578;11.012;2023-11-19T03:42:24;984.367;;;6.08;96.4
13058;BME280;6595;49.578;11.012;2023-11-19T03:44:23;984.427;;;6.08;96.3
13058;BME280;6595;49.578;11.012;2023-11-19T03:46:23;984.427;;;6.08;96.3
13058;BME280;6595;49.578;11.012;2023-11-19T03:48:24;984.460;;;6.08;96.1
13058;BME280;6595;49.578;11.012;2023-11-19T03:50:23;984.654;;;6.06;96.2
13058;BME280;6595;49.578;11.012;2023-11-19T03:52:23;984.685;;;6.08;96.3
13058;BME280;6595;49.578;11.012;2023-11-19T03:54:24;984.863;;;6.08;96.3
13058;BME280;6595;49.578;11.012;2023-11-19T03:56:24;984.845;;;6.06;96.4
13058;BME280;6595;49.578;11.012;2023-11-19T03:58:23;985.021;;;6.12;96.5
13058;BME280;6595;49.578;11.012;2023-11-19T04:00:23;984.960;;;6.15;96.5
13058;BME280;6595;49.578;11.012;2023-11-19T04:02:23;984.836;;;6.19;96.5
13058;BME280;6595;49.578;11.012;2023-11-19T04:04:23;984.915;;;6.19;96.4
13058;BME280;6595;49.578;11.012;2023-11-19T04:06:24;984.946;;;6.22;96.3
13058;BME280;6595;49.578;11.012;2023-11-19T04:08:24;985.026;;;6.21;96.4
13058;BME280;6595;49.578;11.012;2023-11-19T04:10:23;984.937;;;6.22;96.5
13058;BME280;6595;49.578;11.012;2023-11-19T04:12:23;984.961;;;6.28;96.6
13058;BME280;6595;49.578;11.012;2023-11-19T04:14:24;984.996;;;6.28;96.6
13058;BME280;6595;49.578;11.012;2023-11-19T04:16:26;984.999;;;6.32;96.5
13058;BME280;6595;49.578;11.012;2023-11-19T04:18:24;984.884;;;6.32;96.5
13058;BME280;6595;49.578;11.012;2023-11-19T04:20:24;985.071;;;6.36;96.5
13058;BME280;6595;49.578;11.012;2023-11-19T04:22:23;985.180;;;6.36;96.5
13058;BME280;6595;49.578;11.012;2023-11-19T04:24:24;985.180;;;6.36;96.5
13058;BME280;6595;49.578;11.012;2023-11-19T04:26:24;985.128;;;6.37;96.6
13058;BME280;6595;49.578;11.012;2023-11-19T04:28:24;985.076;;;6.42;96.6
13058;BME280;6595;49.578;11.012;2023-11-19T04:30:24;985.282;;;6.43;96.5
13058;BME280;6595;49.578;11.012;2023-11-19T04:32:23;985.244;;;6.47;96.5
13058;BME280;6595;49.578;11.012;2023-11-19T04:34:23;985.195;;;6.45;96.5
13058;BME280;6595;49.578;11.012;2023-11-19T04:36:23;985.110;;;6.47;96.6
13058;BME280;6595;49.578;11.012;2023-11-19T04:38:23;985.097;;;6.49;96.4
13058;BME280;6595;49.578;11.012;2023-11-19T04:40:23;985.135;;;6.52;96.5
13058;BME280;6595;49.578;11.012;2023-11-19T04:42:24;985.042;;;6.50;96.5
13058;BME280;6595;49.578;11.012;2023-11-19T04:44:24;985.025;;;6.53;96.6
13058;BME280;6595;49.578;11.012;2023-11-19T04:46:23;985.008;;;6.55;96.7
13058;BME280;6595;49.578;11.012;2023-11-19T04:48:23;984.978;;;6.55;96.5
13058;BME280;6595;49.578;11.012;2023-11-19T04:50:23;984.938;;;6.53;96.5
13058;BME280;6595;49.578;11.012;2023-11-19T04:52:24;984.983;;;6.59;96.6
13058;BME280;6595;49.578;11.012;2023-11-19T04:54:24;984.939;;;6.62;96.5
13058;BME280;6595;49.578;11.012;2023-11-19T04:56:23;985.010;;;6.59;96.5
13058;BME280;6595;49.578;11.012;2023-11-19T04:58:23;984.924;;;6.59;96.5
13058;BME280;6595;49.578;11.012;2023-11-19T05:00:24;985.020;;;6.62;96.5
13058;BME280;6595;49.578;11.012;2023-11-19T05:02:24;985.002;;;6.69;96.4
13058;BME280;6595;49.578;11.012;2023-11-19T05:04:23;984.982;;;6.69;96.6
13058;BME280;6595;49.578;11.012;2023-11-19T05:06:26;984.982;;;6.69;96.6
13058;BME280;6595;49.578;11.012;2023-11-19T05:08:24;984.962;;;6.69;96.4
13058;BME280;6595;49.578;11.012;2023-11-19T05:10:24;984.906;;;6.70;96.5
13058;BME280;6595;49.578;11.012;2023-11-19T05:12:24;984.855;;;6.77;96.5
13058;BME280;6595;49.578;11.012;2023-11-19T05:14:24;984.824;;;6.77;96.5
13058;BME280;6595;49.578;11.012;2023-11-19T05:16:23;984.877;;;6.76;96.5
13058;BME280;6595;49.578;11.012;2023-11-19T05:18:24;984.835;;;6.79;96.6
13058;BME280;6595;49.578;11.012;2023-11-19T05:20:23;984.713;;;6.77;96.7
13058;BME280;6595;49.578;11.012;2023-11-19T05:22:24;984.668;;;6.80;96.6
13058;BME280;6595;49.578;11.012;2023-11-19T05:24:24;984.675;;;6.82;96.6
13058;BME280;6595;49.578;11.012;2023-11-19T05:26:24;984.702;;;6.82;96.7
13058;BME280;6595;49.578;11.012;2023-11-19T05:28:23;984.499;;;6.82;96.7
13058;BME280;6595;49.578;11.012;2023-11-19T05:30:23;984.541;;;6.89;96.7
13058;BME280;6595;49.578;11.012;2023-11-19T05:32:23;984.553;;;6.89;96.8
13058;BME280;6595;49.578;11.012;2023-11-19T05:34:24;984.476;;;6.89;96.9
13058;BME280;6595;49.578;11.012;2023-11-19T05:36:23;984.546;;;6.96;96.9
13058;BME280;6595;49.578;11.012;2023-11-19T05:38:23;984.452;;;6.96;97.0
13058;BME280;6595;49.578;11.012;2023-11-19T05:40:23;984.474;;;6.99;97.0
13058;BME280;6595;49.578;11.012;2023-11-19T05:42:23;984.471;;;6.99;97.0
13058;BME280;6595;49.578;11.012;2023-11-19T05:44:23;984.502;;;7.03;97.1
13058;BME280;6595;49.578;11.012;2023-11-19T05:46:24;984.587;;;7.03;97.1
13058;BME280;6595;49.578;11.012;2023-11-19T05:48:25;984.522;;;7.07;97.2
13058;BME280;6595;49.578;11.012;2023-11-19T05:50:23;984.385;;;7.08;97.2
13058;BME280;6595;49.578;11.012;2023-11-19T05:52:23;984.512;;;7.10;97.2
13058;BME280;6595;49.578;11.012;2023-11-19T05:54:24;984.485;;;7.10;97.3
13058;BME280;6595;49.578;11.012;2023-11-19T05:56:24;984.451;;;7.08;97.3
13058;BME280;6595;49.578;11.012;2023-11-19T05:58:25;984.547;;;7.14;97.4
13058;BME280;6595;49.578;11.012;2023-11-19T06:00:23;984.561;;;7.14;97.4
13058;BME280;6595;49.578;11.012;2023-11-19T06:02:23;984.407;;;7.18;97.4
13058;BME280;6595;49.578;11.012;2023-11-19T06:04:23;984.414;;;7.21;97.5
13058;BME280;6595;49.578;11.012;2023-11-19T06:06:23;984.422;;;7.22;97.4
13058;BME280;6595;49.578;11.012;2023-11-19T06:08:24;984.458;;;7.25;97.5
13058;BME280;6595;49.578;11.012;2023-11-19T06:10:24;984.348;;;7.25;97.5
13058;BME280;6595;49.578;11.012;2023-11-19T06:12:23;984.409;;;7.32;97.5
13058;BME280;6595;49.578;11.012;2023-11-19T06:14:23;984.387;;;7.30;97.5
13058;BME280;6595;49.578;11.012;2023-11-19T06:16:23;984.438;;;7.30;97.5
13058;BME280;6595;49.578;11.012;2023-11-19T06:18:24;984.486;;;7.32;97.6
13058;BME280;6595;49.578;11.012;2023-11-19T06:20:23;984.575;;;7.32;97.6
13058;BME280;6595;49.578;11.012;2023-11-19T06:22:23;984.510;;;7.35;97.6
13058;BME280;6595;49.578;11.012;2023-11-19T06:24:23;984.551;;;7.38;97.6
13058;BME280;6595;49.578;11.012;2023-11-19T06:26:23;984.458;;;7.38;97.6
13058;BME280;6595;49.578;11.012;2023-11-19T06:28:25;984.499;;;7.41;97.6
13058;BME280;6595;49.578;11.012;2023-11-19T06:30:23;984.479;;;7.41;97.6
13058;BME280;6595;49.578;11.012;2023-11-19T06:32:24;984.429;;;7.48;97.7
13058;BME280;6595;49.578;11.012;2023-11-19T06:34:24;984.438;;;7.48;97.7
13058;BME280;6595;49.578;11.012;2023-11-19T06:36:23;984.434;;;7.50;97.7
13058;BME280;6595;49.578;11.012;2023-11-19T06:38:23;984.355;;;7.52;97.8
13058;BME280;6595;49.578;11.012;2023-11-19T06:40:24;984.399;;;7.57;97.8
13058;BME280;6595;49.578;11.012;2023-11-19T06:42:24;984.458;;;7.58;97.8
13058;BME280;6595;49.578;11.012;2023-11-19T06:44:24;984.401;;;7.61;97.9
13058;BME280;6595;49.578;11.012;2023-11-19T06:46:24;984.422;;;7.64;97.9
13058;BME280;6595;49.578;11.012;2023-11-19T06:48:23;984.460;;;7.65;97.9
13058;BME280;6595;49.578;11.012;2023-11-19T06:50:23;984.517;;;7.69;97.9
13058;BME280;6595;49.578;11.012;2023-11-19T06:52:23;984.425;;;7.69;97.9
13058;BME280;6595;49.578;11.012;2023-11-19T06:54:23;984.474;;;7.71;97.9
13058;BME280;6595;49.578;11.012;2023-11-19T06:56:24;984.454;;;7.75;98.0
13058;BME280;6595;49.578;11.012;2023-11-19T06:58:24;984.451;;;7.76;97.9
13058;BME280;6595;49.578;11.012;2023-11-19T07:00:24;984.380;;;7.82;98.0
13058;BME280;6595;49.578;11.012;2023-11-19T07:02:23;984.475;;;7.84;98.0
13058;BME280;6595;49.578;11.012;2023-11-19T07:04:24;984.517;;;7.86;98.1
13058;BME280;6595;49.578;11.012;2023-11-19T07:06:24;984.496;;;7.92;98.1
13058;BME280;6595;49.578;11.012;2023-11-19T07:08:24;984.544;;;7.93;98.2
13058;BME280;6595;49.578;11.012;2023-11-19T07:10:24;984.411;;;7.96;98.2
13058;BME280;6595;49.578;11.012;2023-11-19T07:12:23;984.526;;;8.00;98.3
13058;BME280;6595;49.578;11.012;2023-11-19T07:14:23;984.561;;;8.08;98.2
13058;BME280;6595;49.578;11.012;2023-11-19T07:16:23;984.423;;;8.09;98.2
13058;BME280;6595;49.578;11.012;2023-11-19T07:18:24;984.424;;;8.12;98.3
13058;BME280;6595;49.578;11.012;2023-11-19T07:20:23;984.436;;;8.14;98.3
13058;BME280;6595;49.578;11.012;2023-11-19T07:22:24;984.458;;;8.23;98.3
13058;BME280;6595;49.578;11.012;2023-11-19T07:24:24;984.576;;;8.23;98.3
13058;BME280;6595;49.578;11.012;2023-11-19T07:26:24;984.596;;;8.29;98.4
13058;BME280;6595;49.578;11.012;2023-11-19T07:28:24;984.595;;;8.36;98.4
13058;BME280;6595;49.578;11.012;2023-11-19T07:30:24;984.595;;;8.36;98.4
13058;BME280;6595;49.578;11.012;2023-11-19T07:32:23;984.626;;;8.50;98.4
13058;BME280;6595;49.578;11.012;2023-11-19T07:34:24;984.574;;;8.59;98.5
13058;BME280;6595;49.578;11.012;2023-11-19T07:36:23;984.791;;;8.61;98.5
13058;BME280;6595;49.578;11.012;2023-11-19T07:38:24;984.791;;;8.61;98.5
13058;BME280;6595;49.578;11.012;2023-11-19T07:40:24;984.846;;;8.68;98.5
13058;BME280;6595;49.578;11.012;2023-11-19T07:42:23;984.777;;;8.67;98.4
13058;BME280;6595;49.578;11.012;2023-11-19T07:44:23;984.842;;;8.68;98.4
13058;BME280;6595;49.578;11.012;2023-11-19T07:46:23;984.787;;;8.70;98.4
13058;BME280;6595;49.578;11.012;2023-11-19T07:48:24;984.727;;;8.70;98.3
13058;BME280;6595;49.578;11.012;2023-11-19T07:50:24;984.771;;;8.70;98.2
13058;BME280;6595;49.578;11.012;2023-11-19T07:52:24;984.733;;;8.70;98.1
13058;BME280;6595;49.578;11.012;2023-11-19T07:54:24;984.764;;;8.73;98.1
13058;BME280;6595;49.578;11.012;2023-11-19T07:56:23;984.769;;;8.74;98.1
13058;BME280;6595;49.578;11.012;2023-11-19T07:58:23;984.721;;;8.77;98.2
13058;BME280;6595;49.578;11.012;2023-11-19T08:00:23;984.791;;;8.90;98.1
13058;BME280;6595;49.578;11.012;2023-11-19T08:02:23;984.652;;;8.91;98.1
13058;BME280;6595;49.578;11.012;2023-11-19T08:04:24;984.677;;;9.03;98.1
13058;BME280;6595;49.578;11.012;2023-11-19T08:06:24;984.734;;;9.28;98.3
13058;BME280;6595;49.578;11.012;2023-11-19T08:08:23;984.813;;;9.32;98.3
13058;BME280;6595;49.578;11.012;2023-11-19T08:10:23;984.796;;;9.34;98.2
13058;BME280;6595;49.578;11.012;2023-11-19T08:12:23;984.885;;;9.38;98.3
13058;BME280;6595;49.578;11.012;2023-11-19T08:14:23;984.871;;;9.41;98.3
13058;BME280;6595;49.578;11.012;2023-11-19T08:16:24;984.813;;;9.43;98.3
13058;BME280;6595;49.578;11.012;2023-11-19T08:18:24;984.804;;;9.55;98.4
13058;BME280;6595;49.578;11.012;2023-11-19T08:20:24;984.792;;;9.63;98.5
13058;BME280;6595;49.578;11.012;2023-11-19T08:22:23;984.719;;;9.83;98.6
13058;BME280;6595;49.578;11.012;2023-11-19T08:24:23;984.735;;;9.83;98.6
13058;BME280;6595;49.578;11.012;2023-11-19T08:26:23;984.730;;;9.89;98.6
13058;BME280;6595;49.578;11.012;2023-11-19T08:28:23;984.667;;;9.90;98.6
13058;BME280;6595;49.578;11.012;2023-11-19T08:30:23;984.675;;;9.90;98.5
13058;BME280;6595;49.578;11.012;2023-11-19T08:32:24;984.582;;;9.92;98.5
13058;BME280;6595;49.578;11.012;2023-11-19T08:34:23;984.563;;;9.96;98.5
13058;BME280;6595;49.578;11.012;2023-11-19T08:36:23;984.563;;;9.96;98.5
13058;BME280;6595;49.578;11.012;2023-11-19T08:38:24;984.567;;;9.96;98.5
13058;BME280;6595;49.578;11.012;2023-11-19T08:40:24;984.553;;;9.97;98.5
13058;BME280;6595;49.578;11.012;2023-11-19T08:42:23;984.673;;;10.06;98.5
13058;BME280;6595;49.578;11.012;2023-11-19T08:44:23;984.555;;;10.07;98.4
13058;BME280;6595;49.578;11.012;2023-11-19T08:46:24;984.572;;;10.12;98.4
13058;BME280;6595;49.578;11.012;2023-11-19T08:48:24;984.495;;;10.13;98.2
13058;BME280;6595;49.578;11.012;2023-11-19T08:50:24;984.588;;;10.13;98.2
13058;BME280;6595;49.578;11.012;2023-11-19T08:52:24;984.497;;;10.14;98.2
13058;BME280;6595;49.578;11.012;2023-11-19T08:54:23;984.438;;;10.19;98.2
13058;BME280;6595;49.578;11.012;2023-11-19T08:56:23;984.532;;;10.23;98.2
13058;BME280;6595;49.578;11.012;2023-11-19T08:58:24;984.594;;;10.30;98.2
13058;BME280;6595;49.578;11.012;2023-11-19T09:00:23;984.550;;;10.39;97.9
13058;BME280;6595;49.578;11.012;2023-11-19T09:02:23;984.573;;;10.60;97.5
13058;BME280;6595;49.578;11.012;2023-11-19T09:04:23;984.617;;;10.71;96.9
13058;BME280;6595;49.578;11.012;2023-11-19T09:06:24;984.621;;;10.81;96.8
13058;BME280;6595;49.578;11.012;2023-11-19T09:08:23;984.741;;;10.91;96.8
13058;BME280;6595;49.578;11.012;2023-11-19T09:10:24;984.572;;;11.01;96.2
13058;BME280;6595;49.578;11.012;2023-11-19T09:12:23;984.738;;;11.07;95.8
13058;BME280;6595;49.578;11.012;2023-11-19T09:14:23;984.663;;;11.12;95.7
13058;BME280;6595;49.578;11.012;2023-11-19T09:16:24;984.713;;;11.18;95.5
13058;BME280;6595;49.578;11.012;2023-11-19T09:18:23;984.734;;;11.23;95.1
13058;BME280;6595;49.578;11.012;2023-11-19T09:20:23;984.762;;;11.33;94.2
13058;BME280;6595;49.578;11.012;2023-11-19T09:22:23;984.915;;;11.49;93.1
13058;BME280;6595;49.578;11.012;2023-11-19T09:24:23;985.006;;;11.66;91.5
13058;BME280;6595;49.578;11.012;2023-11-19T09:26:23;984.954;;;11.70;91.7
13058;BME280;6595;49.578;11.012;2023-11-19T09:28:24;985.024;;;11.73;91.7
13058;BME280;6595;49.578;11.012;2023-11-19T09:30:24;985.130;;;11.73;91.6
13058;BME280;6595;49.578;11.012;2023-11-19T09:32:24;985.110;;;11.76;91.5
13058;BME280;6595;49.578;11.012;2023-11-19T09:34:24;985.117;;;11.76;91.6
13058;BME280;6595;49.578;11.012;2023-11-19T09:36:23;985.137;;;11.75;91.8
13058;BME280;6595;49.578;11.012;2023-11-19T09:38:23;985.107;;;11.75;92.1
13058;BME280;6595;49.578;11.012;2023-11-19T09:40:23;985.176;;;11.76;92.0
13058;BME280;6595;49.578;11.012;2023-11-19T09:42:23;985.202;;;11.86;91.8
13058;BME280;6595;49.578;11.012;2023-11-19T09:44:24;985.219;;;11.87;92.0
13058;BME280;6595;49.578;11.012;2023-11-19T09:46:24;985.151;;;11.97;90.9
13058;BME280;6595;49.578;11.012;2023-11-19T09:48:24;985.125;;;11.99;91.2
13058;BME280;6595;49.578;11.012;2023-11-19T09:50:23;985.065;;;12.06;90.2
13058;BME280;6595;49.578;11.012;2023-11-19T09:52:23;985.108;;;12.07;90.5
13058;BME280;6595;49.578;11.012;2023-11-19T09:54:23;985.029;;;12.21;89.6
13058;BME280;6595;49.578;11.012;2023-11-19T09:56:24;985.142;;;12.21;90.0
13058;BME280;6595;49.578;11.012;2023-11-19T09:58:24;985.115;;;12.20;90.0
13058;BME280;6595;49.578;11.012;2023-11-19T10:00:24;985.119;;;12.26;88.7
13058;BME280;6595;49.578;11.012;2023-11-19T10:02:24;985.119;;;12.26;88.7
13058;BME280;6595;49.578;11.012;2023-11-19T10:04:25;985.176;;;12.30;88.1
13058;BME280;6595;49.578;11.012;2023-11-19T10:06:24;985.131;;;12.36;87.7
13058;BME280;6595;49.578;11.012;2023-11-19T10:08:24;985.064;;;12.41;87.7
13058;BME280;6595;49.578;11.012;2023-11-19T10:10:23;985.044;;;12.47;87.3
13058;BME280;6595;49.578;11.012;2023-11-19T10:12:23;984.987;;;12.52;86.7
13058;BME280;6595;49.578;11.012;2023-11-19T10:14:24;984.960;;;12.51;86.8
13058;BME280;6595;49.578;11.012;2023-11-19T10:16:28;984.886;;;12.54;86.9
13058;BME280;6595;49.578;11.012;2023-11-19T10:18:25;984.987;;;12.57;86.2
13058;BME280;6595;49.578;11.012;2023-11-19T10:20:24;984.958;;;12.58;86.0
13058;BME280;6595;49.578;11.012;2023-11-19T10:22:24;984.982;;;12.60;86.0
13058;BME280;6595;49.578;11.012;2023-11-19T10:24:31;984.964;;;12.65;85.4
13058;BME280;6595;49.578;11.012;2023-11-19T10:26:24;985.020;;;12.65;85.4
13058;BME280;6595;49.578;11.012;2023-11-19T10:28:24;984.984;;;12.67;85.5
13058;BME280;6595;49.578;11.012;2023-11-19T10:30:25;985.039;;;12.67;85.7
13058;BME280;6595;49.578;11.012;2023-11-19T10:32:24;984.948;;;12.64;85.4
13058;BME280;6595;49.578;11.012;2023-11-19T10:34:25;984.848;;;12.64;85.0
13058;BME280;6595;49.578;11.012;2023-11-19T10:36:40;984.890;;;12.58;86.0
13058;BME280;6595;49.578;11.012;2023-11-19T10:38:24;984.770;;;12.58;85.8
13058;BME280;6595;49.578;11.012;2023-11-19T10:40:26;984.726;;;12.58;85.4
13058;BME280;6595;49.578;11.012;2023-11-19T10:42:24;984.836;;;12.55;85.9
13058;BME280;6595;49.578;11.012;2023-11-19T10:44:31;984.805;;;12.58;86.0
13058;BME280;6595;49.578;11.012;2023-11-19T10:46:37;984.810;;;12.58;85.6
13058;BME280;6595;49.578;11.012;2023-11-19T10:48:24;984.855;;;12.58;85.9
13058;BME280;6595;49.578;11.012;2023-11-19T10:50:24;984.929;;;12.64;85.6
13058;BME280;6595;49.578;11.012;2023-11-19T10:52:25;984.883;;;12.63;86.1
13058;BME280;6595;49.578;11.012;2023-11-19T10:54:24;984.909;;;12.64;86.0
13058;BME280;6595;49.578;11.012;2023-11-19T10:56:25;984.834;;;12.63;86.5
13058;BME280;6595;49.578;11.012;2023-11-19T10:58:24;984.955;;;12.61;86.6